Decoded Metar for KPQL (PASCAGOULA in MS, USA) (IATA:PQL) | Meteo·Mobile Aviation Weather
aviador You're here:

KPQL Decoded Metar

PASCAGOULA in MS, USA
Report Time2019-10-18 12:53:00
UTC Time2019-10-18 13:39:58
Flight Rules vfr VFR
Wind320° at 03 kt
W.Decomp.*RWY 35: 2.6 kt HW 1.5 kt LCW
Visibility9999 m
Phenomena:Light Rain
Clouds:Few 110 Hf
Expected CloudBase > 2,000 ft AGL from Temp-Dew spread
CeilingNone
Temp16°C (ISA +1)
Dew Point11°C (72% RH)
AAT15.2°C
QNH1014 hPa
Density Alt285 ft
Elevation20 ft
Report Wrong Elevation
Raw Report
KPQL 181253Z 32003KT 10SM -RA FEW110 16/11 A2993 RMK AO2 RAB39
SLP136 P0000 T01560111=

Extra information for KPQL:More info

Metar Taf Metar & Taf Last 4 Metars F.Rules Stats Wind Profile Meteogram Temp Stats Airport Information Weather charts Add Link Nearby VenuesMetar ALERT Operation Metar Decoded Social comments

AIRNAV info for KPQL